Seafrance Rodin — FOBQ — position and weather

sailwx.info

Track history (hours):
 
Tides and Currents Weather Stations Pressure Air Temp Water Temp Dewpoint Dewpoint Depression Visibility Wind Speed Wind Dir Waves Ship Positions

Seafrance Rodin

Operator: SeaFrance

Last reported at 2017-Dec-11 17:00 UTC. Time now 2017-Dec-12 04:25 UTC.
Position N 50°58' E 001°40'.

Length 185 m; draft 6.4 m.

Type: Ship (hazmat cat A). MMSI: 227022800.

Date/timePositionNaut miles runAvg speedWind from/ knotsBaromVisibWave heightAir tempDewpointWater temp
2017-Dec-11 17:00N 50°58' E 001°40'0 0.7
2017-Dec-11 16:31N 50°58' E 001°40'5 9.1
2017-Dec-11 16:00N 51°00' E 001°34'612.1
2017-Dec-11 15:31N 51°04' E 001°26'510.1
2017-Dec-11 15:00N 51°07' E 001°20'0 0.0
2017-Dec-11 14:31N 51°07' E 001°20'0 0.1
2017-Dec-11 14:00N 51°07' E 001°20'3 5.7
2017-Dec-11 13:31N 51°07' E 001°25'1 2.5
2017-Dec-11 13:01N 51°08' E 001°27'1 2.6
2017-Dec-11 12:31N 51°07' E 001°29'0 0.6
2017-Dec-11 12:00N 51°07' E 001°28'2 3.6
2017-Dec-11 11:30N 51°06' E 001°29'815.5
2017-Dec-11 11:01N 51°01' E 001°39'815.7
2017-Dec-11 10:30N 50°58' E 001°51'0 0.5
2017-Dec-11 10:00N 50°58' E 001°51'0 0.4
2017-Dec-11 09:30N 50°58' E 001°51'511.0
2017-Dec-11 09:00N 50°58' E 001°42'816.9
2017-Dec-11 08:30N 51°03' E 001°31'816.5
2017-Dec-11 08:00N 51°07' E 001°20'0 0.0
2017-Dec-11 07:29N 51°07' E 001°20'0 0.2
2017-Dec-11 06:56N 51°07' E 001°20'1 3.3
2017-Dec-11 06:31N 51°07' E 001°22'714.3
2017-Dec-11 06:00N 51°04' E 001°32'918.0
2017-Dec-11 05:31N 50°58' E 001°44'5 9.0
2017-Dec-11 05:00N 50°58' E 001°51'0 0.0
2017-Dec-11 04:31N 50°58' E 001°51'1 1.0
2017-Dec-11 04:00N 50°58' E 001°51'816.0
2017-Dec-11 03:31N 50°59' E 001°38'816.1
2017-Dec-11 03:00N 51°04' E 001°28'611.9
2017-Dec-11 02:30N 51°07' E 001°20'0 0.0
2017-Dec-11 02:00N 51°07' E 001°20'3 7.0
2017-Dec-11 01:31N 51°06' E 001°25'1121.9
2017-Dec-11 01:01N 51°00' E 001°40'815.0
2017-Dec-11 00:30N 50°58' E 001°51'0 0.0
2017-Dec-11 00:01N 50°58' E 001°51'3 6.9
2017-Dec-10 23:31N 50°58' E 001°46'1019.2
2017-Dec-10 23:01N 51°01' E 001°31'1018.5
2017-Dec-10 22:29N 51°07' E 001°20'0 0.1
2017-Dec-10 22:00N 51°07' E 001°20'1 1.3
2017-Dec-10 21:30N 51°07' E 001°21'1020.0
2017-Dec-10 21:00N 51°02' E 001°34'1019.7
2017-Dec-10 20:31N 50°58' E 001°49'2 3.0
2017-Dec-10 20:01N 50°58' E 001°51'0 0.3
2017-Dec-10 19:31N 50°58' E 001°51'0 0.7
2017-Dec-10 19:00N 50°58' E 001°52'0 0.0
2017-Dec-10 18:30N 50°58' E 001°52'0 0.0
2017-Dec-10 17:57N 50°58' E 001°52'0 0.0
2017-Dec-10 17:30N 50°58' E 001°52'0 0.0
2017-Dec-10 16:51N 50°58' E 001°52'0 0.0
2017-Dec-10 16:30N 50°58' E 001°52'0 0.0
2017-Dec-10 15:57N 50°58' E 001°52'0 0.0
2017-Dec-10 15:30N 50°58' E 001°52'0 0.0
2017-Dec-10 15:00N 50°58' E 001°52'0 0.0
2017-Dec-10 14:29N 50°58' E 001°52'0 0.0
2017-Dec-10 13:59N 50°58' E 001°52'0 0.0
2017-Dec-10 13:29N 50°58' E 001°52'0 0.0
2017-Dec-10 12:59N 50°58' E 001°52'0 0.0
2017-Dec-10 12:29N 50°58' E 001°52'0 0.0
2017-Dec-10 11:59N 50°58' E 001°52'0 0.0
2017-Dec-10 11:29N 50°58' E 001°52'0 0.0
2017-Dec-10 10:59N 50°58' E 001°52'0 0.0
2017-Dec-10 10:29N 50°58' E 001°52'0 0.0
2017-Dec-10 09:59N 50°58' E 001°52'0 0.0
2017-Dec-10 09:29N 50°58' E 001°52'0 0.0
2017-Dec-10 08:59N 50°58' E 001°52'0 0.0
2017-Dec-10 08:26N 50°58' E 001°52'0 0.0
2017-Dec-10 07:59N 50°58' E 001°52'0 0.0
2017-Dec-10 07:29N 50°58' E 001°52'0 0.0
2017-Dec-10 06:59N 50°58' E 001°52'0 0.0
2017-Dec-10 06:29N 50°58' E 001°52'0 0.0
2017-Dec-10 05:59N 50°58' E 001°52'0 0.0
2017-Dec-10 05:30N 50°58' E 001°52'0 0.0
2017-Dec-10 05:01N 50°58' E 001°52'0 0.0
2017-Dec-10 04:30N 50°58' E 001°52'0 0.0
2017-Dec-10 04:00N 50°58' E 001°52'0 0.0
2017-Dec-10 03:31N 50°58' E 001°52'1 1.2
2017-Dec-10 03:00N 50°58' E 001°51'0 0.0
2017-Dec-10 02:31N 50°58' E 001°51'3 5.9
2017-Dec-10 02:00N 50°58' E 001°46'816.2
2017-Dec-10 01:30N 50°59' E 001°34'917.4
2017-Dec-10 01:00N 51°06' E 001°24'3 5.9
2017-Dec-10 00:30N 51°07' E 001°20'0 0.0
2017-Dec-10 00:00N 51°07' E 001°20'5 9.6
2017-Dec-09 23:30N 51°06' E 001°27'918.5
2017-Dec-09 23:00N 51°01' E 001°39'815.4
2017-Dec-09 22:30N 50°58' E 001°51'0 0.3
2017-Dec-09 22:00N 50°58' E 001°51'0 0.0
2017-Dec-09 21:30N 50°58' E 001°51'5 9.2
2017-Dec-09 21:01N 50°58' E 001°44'815.9
2017-Dec-09 20:31N 51°01' E 001°33'917.4
2017-Dec-09 20:00N 51°07' E 001°22'1 2.3
2017-Dec-09 19:30N 51°07' E 001°20'0 0.0
2017-Dec-09 19:00N 51°07' E 001°20'510.7
2017-Dec-09 18:31N 51°06' E 001°28'918.9
2017-Dec-09 18:00N 51°01' E 001°40'714.4
2017-Dec-09 17:30N 50°58' E 001°51'0 0.1
2017-Dec-09 17:00N 50°58' E 001°51'1 2.2
2017-Dec-09 16:30N 50°58' E 001°50'918.3
2017-Dec-09 16:00N 51°00' E 001°35'918.1
2017-Dec-09 15:30N 51°06' E 001°24'3 5.8
2017-Dec-09 15:00N 51°07' E 001°20'0 0.0
2017-Dec-09 14:27N 51°07' E 001°20'510.3
2017-Dec-09 14:01N 51°06' E 001°27'1020.6
2017-Dec-09 13:30N 50°60' E 001°40'714.2
2017-Dec-09 13:01N 50°58' E 001°51'0 0.0
2017-Dec-09 12:30N 50°58' E 001°51'2 3.7
2017-Dec-09 12:00N 50°58' E 001°48'816.4
2017-Dec-09 11:30N 50°60' E 001°35'918.9
2017-Dec-09 11:00N 51°06' E 001°24'3 5.9
2017-Dec-09 10:30N 51°07' E 001°20'0 0.0
2017-Dec-09 10:00N 51°07' E 001°20'5 9.3
2017-Dec-09 09:31N 51°06' E 001°27'918.4
2017-Dec-09 09:01N 51°01' E 001°39'815.6
2017-Dec-09 08:30N 50°58' E 001°51'0 0.6
2017-Dec-09 08:00N 50°58' E 001°51'0 0.0
2017-Dec-09 07:30N 50°58' E 001°51'4 7.3
2017-Dec-09 07:01N 50°58' E 001°45'917.1
2017-Dec-09 06:30N 51°01' E 001°33'918.4
2017-Dec-09 06:00N 51°06' E 001°21'1 2.7
2017-Dec-09 05:30N 51°07' E 001°20'0 0.1
2017-Dec-09 05:00N 51°07' E 001°20'612.1
2017-Dec-09 04:30N 51°06' E 001°29'816.6
2017-Dec-09 04:01N 51°01' E 001°40'713.8
2017-Dec-09 03:30N 50°58' E 001°50'1 1.4
2017-Dec-09 03:01N 50°58' E 001°51'0 0.0
2017-Dec-09 02:31N 50°58' E 001°51'2 4.2
2017-Dec-09 02:00N 50°58' E 001°48'816.7
2017-Dec-09 01:31N 50°59' E 001°35'816.4
2017-Dec-09 01:01N 51°05' E 001°26'4 8.1
2017-Dec-09 00:30N 51°07' E 001°20'0 0.0
2017-Dec-09 00:00N 51°07' E 001°20'1 2.7
2017-Dec-08 23:31N 51°07' E 001°22'918.4
2017-Dec-08 23:00N 51°02' E 001°35'918.7
2017-Dec-08 22:30N 50°58' E 001°48'2 4.1
2017-Dec-08 22:01N 50°58' E 001°51'0 0.0
2017-Dec-08 21:30N 50°58' E 001°51'510.5
2017-Dec-08 21:00N 50°58' E 001°43'816.5
2017-Dec-08 20:30N 51°02' E 001°32'917.5
2017-Dec-08 20:00N 51°07' E 001°20'0 0.5
2017-Dec-08 19:30N 51°07' E 001°20'0 0.0
2017-Dec-08 19:00N 51°07' E 001°20'611.3
2017-Dec-08 18:30N 51°06' E 001°29'1019.1
2017-Dec-08 18:00N 51°00' E 001°41'713.5
2017-Dec-08 17:31N 50°58' E 001°51'0 0.0
2017-Dec-08 17:01N 50°58' E 001°51'3 6.9
2017-Dec-08 16:30N 50°58' E 001°46'917.8
2017-Dec-08 16:00N 51°01' E 001°33'917.6
2017-Dec-08 15:30N 51°07' E 001°22'1 2.5
2017-Dec-08 15:00N 51°07' E 001°20'0 0.0
2017-Dec-08 14:31N 51°07' E 001°20'510.9
2017-Dec-08 14:01N 51°05' E 001°28'1019.7
2017-Dec-08 13:30N 50°60' E 001°41'713.1
2017-Dec-08 13:01N 50°58' E 001°51'0 0.0
2017-Dec-08 12:30N 50°58' E 001°51'0 0.9
2017-Dec-08 12:01N 50°58' E 001°51'713.6
2017-Dec-08 11:30N 50°59' E 001°40'1019.1
2017-Dec-08 11:00N 51°04' E 001°27'611.3
2017-Dec-08 10:31N 51°07' E 001°20'0 0.0
2017-Dec-08 09:59N 51°07' E 001°20'2 4.0
2017-Dec-08 09:31N 51°07' E 001°23'918.1
2017-Dec-08 09:00N 51°02' E 001°35'917.7
2017-Dec-08 08:31N 50°58' E 001°48'2 4.2
2017-Dec-08 08:00N 50°58' E 001°51'0 0.0
2017-Dec-08 07:30N 50°58' E 001°51'3 7.0
2017-Dec-08 07:00N 50°58' E 001°46'816.0
2017-Dec-08 06:30N 51°02' E 001°35'816.4
2017-Dec-08 06:00N 51°06' E 001°24'3 5.0
2017-Dec-08 05:30N 51°07' E 001°20'0 0.0
2017-Dec-08 05:00N 51°07' E 001°20'3 6.3
2017-Dec-08 04:30N 51°06' E 001°25'917.2
2017-Dec-08 04:01N 51°02' E 001°37'815.8
2017-Dec-08 03:30N 50°58' E 001°47'2 4.8
2017-Dec-08 03:00N 50°58' E 001°51'0 0.0
2017-Dec-08 02:30N 50°58' E 001°51'510.9
2017-Dec-08 02:00N 50°58' E 001°43'1021.0
2017-Dec-08 01:31N 51°02' E 001°28'713.3
2017-Dec-08 01:00N 51°07' E 001°20'0 0.1
2017-Dec-08 00:30N 51°07' E 001°20'714.7
2017-Dec-08 00:00N 51°05' E 001°31'1019.9
2017-Dec-07 23:30N 50°59' E 001°44'5 9.8
2017-Dec-07 23:00N 50°58' E 001°51'0 0.0
2017-Dec-07 22:31N 50°58' E 001°51'612.6
2017-Dec-07 22:00N 50°58' E 001°41'1019.2
2017-Dec-07 21:31N 51°03' E 001°28'713.7
2017-Dec-07 21:00N 51°07' E 001°20'0 0.0
2017-Dec-07 20:30N 51°07' E 001°20'1 1.8
2017-Dec-07 20:01N 51°07' E 001°22'919.0
2017-Dec-07 19:31N 51°03' E 001°35'919.0
2017-Dec-07 19:01N 50°58' E 001°48'2 4.0
2017-Dec-07 18:30N 50°58' E 001°51'0 0.0
2017-Dec-07 18:00N 50°58' E 001°51'510.7
2017-Dec-07 17:30N 50°58' E 001°43'1020.2
2017-Dec-07 17:01N 51°02' E 001°28'713.5
2017-Dec-07 16:29N 51°07' E 001°20'0 0.0
2017-Dec-07 16:00N 51°07' E 001°20'0 0.8
2017-Dec-07 15:30N 51°07' E 001°21'713.4
2017-Dec-07 15:00N 51°06' E 001°31'917.7
2017-Dec-07 14:31N 50°60' E 001°42'612.5
2017-Dec-07 14:01N 50°58' E 001°51'0 0.2
2017-Dec-07 13:31N 50°58' E 001°51'0 0.0
2017-Dec-07 13:01N 50°58' E 001°51'1 1.9
2017-Dec-07 12:31N 50°58' E 001°50'1020.0
2017-Dec-07 12:01N 51°01' E 001°34'917.5
2017-Dec-07 11:31N 51°07' E 001°24'3 5.5
2017-Dec-07 11:00N 51°07' E 001°20'0 0.0
2017-Dec-07 10:30N 51°07' E 001°20'1 2.4
2017-Dec-07 10:00N 51°07' E 001°22'3 5.3
2017-Dec-07 09:31N 51°06' E 001°26'918.0
2017-Dec-07 09:00N 51°01' E 001°38'917.5
2017-Dec-07 08:31N 50°58' E 001°51'0 0.6
2017-Dec-07 08:00N 50°58' E 001°51'0 0.0
2017-Dec-07 07:30N 50°58' E 001°51'4 8.7
2017-Dec-07 07:00N 50°58' E 001°44'817.0
2017-Dec-07 06:30N 51°02' E 001°33'917.5
2017-Dec-07 06:00N 51°07' E 001°21'1 1.4
2017-Dec-07 05:30N 51°07' E 001°20'0 0.2
2017-Dec-07 05:00N 51°07' E 001°20'3 6.6
2017-Dec-07 04:31N 51°07' E 001°25'816.6
2017-Dec-07 04:01N 51°03' E 001°37'816.8
2017-Dec-07 03:31N 50°58' E 001°48'2 4.1
2017-Dec-07 03:00N 50°58' E 001°51'0 0.0
2017-Dec-07 02:30N 50°58' E 001°51'1 2.8
2017-Dec-07 02:00N 50°58' E 001°49'918.3
2017-Dec-07 01:31N 51°01' E 001°35'917.4
2017-Dec-07 01:01N 51°06' E 001°24'3 5.6
2017-Dec-07 00:30N 51°07' E 001°20'0 0.0
2017-Dec-07 00:00N 51°07' E 001°20'2 3.2
2017-Dec-06 23:30N 51°07' E 001°23'816.9
2017-Dec-06 23:01N 51°02' E 001°34'918.0
2017-Dec-06 22:31N 50°58' E 001°46'3 6.1
2017-Dec-06 22:00N 50°58' E 001°51'0 0.0
2017-Dec-06 21:30N 50°58' E 001°51'510.8
2017-Dec-06 21:00N 50°58' E 001°43'  
2017-Dec-04 10:16N 51°07' E 001°20'0 0.0
2017-Dec-04 10:01N 51°07' E 001°20'4 8.1
2017-Dec-04 09:31N 51°07' E 001°27'917.1
2017-Dec-04 09:01N 51°02' E 001°38'816.2
2017-Dec-04 08:31N 50°58' E 001°49'1 2.5
2017-Dec-04 08:01N 50°58' E 001°51'0 0.0
2017-Dec-04 07:30N 50°58' E 001°51'3 6.9
2017-Dec-04 07:00N 50°58' E 001°46'815.3
2017-Dec-04 06:30N 50°60' E 001°34'817.1
2017-Dec-04 06:01N 51°05' E 001°24'3 6.2
2017-Dec-04 05:30N 51°07' E 001°20'0 0.0
2017-Dec-04 05:00N 51°07' E 001°20'510.6
2017-Dec-04 04:31N 51°05' E 001°28'816.1
2017-Dec-04 04:01N 51°00' E 001°38'815.9
2017-Dec-04 03:31N 50°58' E 001°50'1 1.6
2017-Dec-04 03:00N 50°58' E 001°51'0 0.0
2017-Dec-04 02:31N 50°58' E 001°51'3 6.4
2017-Dec-04 02:00N 50°58' E 001°46'714.7
2017-Dec-04 01:30N 51°01' E 001°35'714.2
2017-Dec-04 01:00N 51°05' E 001°26'5 9.3
2017-Dec-04 00:31N 51°07' E 001°20'0 0.0
2017-Dec-04 00:01N 51°07' E 001°20'1 2.2
2017-Dec-03 23:30N 51°07' E 001°22'917.9
2017-Dec-03 23:01N 51°04' E 001°35'917.6
2017-Dec-03 22:31N 50°58' E 001°46'4 7.0
2017-Dec-03 22:00N 50°58' E 001°51'0 0.0
2017-Dec-03 21:30N 50°58' E 001°51'5 9.3
2017-Dec-03 21:01N 50°58' E 001°44'916.9
2017-Dec-03 20:30N 51°02' E 001°32'816.7
2017-Dec-03 20:00N 51°07' E 001°21'1 1.6
2017-Dec-03 19:30N 51°07' E 001°20'0 0.0
2017-Dec-03 19:00N 51°07' E 001°20'612.3
2017-Dec-03 18:31N 51°05' E 001°29'1019.6
2017-Dec-03 18:01N 50°59' E 001°42'612.1
2017-Dec-03 17:30N 50°58' E 001°51'0 0.0
2017-Dec-03 17:00N 50°58' E 001°51'2 3.5
2017-Dec-03 16:31N 50°58' E 001°48'815.6
2017-Dec-03 16:00N 50°59' E 001°36'917.2
2017-Dec-03 15:30N 51°04' E 001°25'5 8.9
2017-Dec-03 15:00N 51°07' E 001°20'0 0.0
2017-Dec-03 14:30N 51°07' E 001°20'4 7.7
2017-Dec-03 14:00N 51°06' E 001°26'918.5
2017-Dec-03 13:30N 51°01' E 001°38'816.3
2017-Dec-03 13:00N 50°58' E 001°51'0 0.7
2017-Dec-03 12:30N 50°58' E 001°51'0 0.0
2017-Dec-03 12:00N 50°58' E 001°51'0 0.0
2017-Dec-03 11:30N 50°58' E 001°51'0 0.0
2017-Dec-03 11:00N 50°58' E 001°51'0 0.0
2017-Dec-03 10:30N 50°58' E 001°51'0 0.0
2017-Dec-03 10:00N 50°58' E 001°51'0 0.0
2017-Dec-03 09:30N 50°58' E 001°51'0 0.0
2017-Dec-03 09:00N 50°58' E 001°51'0 0.0
2017-Dec-03 08:30N 50°58' E 001°51'0 0.0
2017-Dec-03 08:00N 50°58' E 001°51'0 0.0
2017-Dec-03 07:30N 50°58' E 001°51'0 0.0
2017-Dec-03 06:57N 50°58' E 001°51'0 0.0
2017-Dec-03 06:30N 50°58' E 001°51'0 0.0
2017-Dec-03 06:00N 50°58' E 001°51'0 0.0
2017-Dec-03 05:30N 50°58' E 001°51'0 0.0
2017-Dec-03 05:00N 50°58' E 001°51'0 0.0
2017-Dec-03 04:30N 50°58' E 001°51'0 0.0
2017-Dec-03 04:00N 50°58' E 001°51'0 0.0
2017-Dec-03 03:31N 50°58' E 001°51'0 0.0
2017-Dec-03 03:01N 50°58' E 001°51'0 0.0
2017-Dec-03 02:30N 50°58' E 001°51'3 6.5
2017-Dec-03 02:00N 50°58' E 001°46'816.1
2017-Dec-03 01:31N 51°01' E 001°34'816.7
2017-Dec-03 01:00N 51°06' E 001°23'2 4.8
2017-Dec-03 00:30N 51°07' E 001°20'0 0.0
2017-Dec-03 00:00N 51°07' E 001°20'3 7.0
2017-Dec-02 23:30N 51°07' E 001°26'917.7
2017-Dec-02 23:00N 51°02' E 001°38'815.9
2017-Dec-02 22:30N 50°58' E 001°49'2 3.5
2017-Dec-02 22:00N 50°58' E 001°51'0 0.0
2017-Dec-02 21:30N 50°58' E 001°51'5 9.7
2017-Dec-02 21:01N 50°58' E 001°44'917.0
2017-Dec-02 20:30N 51°01' E 001°31'816.6
2017-Dec-02 20:00N 51°07' E 001°21'1 1.9
2017-Dec-02 19:30N 51°07' E 001°20'0 0.3
2017-Dec-02 18:58N 51°07' E 001°20'716.0
2017-Dec-02 18:30N 51°04' E 001°31'1019.5
2017-Dec-02 18:01N 50°59' E 001°44'5 9.7
2017-Dec-02 17:30N 50°58' E 001°51'0 0.0
2017-Dec-02 17:01N 50°58' E 001°51'5 9.1
2017-Dec-02 16:31N 50°58' E 001°44'1019.1
2017-Dec-02 16:00N 51°03' E 001°31'816.5
2017-Dec-02 15:31N 51°07' E 001°20'0 0.0
2017-Dec-02 15:00N 51°07' E 001°20'1 2.3
2017-Dec-02 14:31N 51°07' E 001°22'918.8
2017-Dec-02 14:01N 51°03' E 001°35'1019.0
2017-Dec-02 13:31N 50°58' E 001°48'2 3.8
2017-Dec-02 13:01N 50°58' E 001°51'0 0.0
2017-Dec-02 12:31N 50°58' E 001°51'510.7
2017-Dec-02 12:00N 50°58' E 001°43'1020.6
2017-Dec-02 11:31N 51°03' E 001°29'712.9
2017-Dec-02 10:58N 51°07' E 001°20'0 0.0
2017-Dec-02 10:30N 51°07' E 001°20'0 0.0
2017-Dec-02 10:00N 51°07' E 001°20'2 4.9
2017-Dec-02 09:30N 51°07' E 001°24'917.8
2017-Dec-02 09:00N 51°03' E 001°36'917.2
2017-Dec-02 08:30N 50°58' E 001°48'2 3.8
2017-Dec-02 08:00N 50°58' E 001°51'0 0.0
2017-Dec-02 07:30N 50°58' E 001°51'4 7.3
2017-Dec-02 07:00N 50°58' E 001°45'817.0
2017-Dec-02 06:30N 50°59' E 001°32'918.2
2017-Dec-02 06:00N 51°06' E 001°22'2 3.9
2017-Dec-02 05:30N 51°07' E 001°20'0 0.0
2017-Dec-02 05:00N 51°07' E 001°20'4 7.7
2017-Dec-02 04:31N 51°06' E 001°26'815.8
2017-Dec-02 04:00N 51°02' E 001°37'815.4
2017-Dec-02 03:31N 50°58' E 001°47'3 5.1
2017-Dec-02 03:00N 50°58' E 001°51'0 0.0
2017-Dec-02 02:31N 50°58' E 001°51'2 3.4
2017-Dec-02 02:00N 50°58' E 001°49'815.3
2017-Dec-02 01:31N 50°59' E 001°36'816.6
2017-Dec-02 01:00N 51°05' E 001°27'5 9.3
2017-Dec-02 00:29N 51°07' E 001°20'0 0.0
2017-Dec-02 00:00N 51°07' E 001°20'1 2.9
2017-Dec-01 23:30N 51°07' E 001°22'917.1
2017-Dec-01 23:01N 51°03' E 001°35'917.5
2017-Dec-01 22:31N 50°58' E 001°46'3 7.0
2017-Dec-01 22:00N 50°58' E 001°51'714.0
2017-Dec-01 21:30N 50°59' E 001°40'3 6.8
2017-Dec-01 21:01N 50°58' E 001°45'917.4
2017-Dec-01 20:31N 51°02' E 001°33'8 4.8
2017-Dec-01 18:46N 51°07' E 001°22'519.1
2017-Dec-01 18:30N 51°05' E 001°30'1019.1
2017-Dec-01 18:00N 50°59' E 001°42'611.9
2017-Dec-01 17:31N 50°58' E 001°51'  
Track history (hours):
 
Tides and Currents Weather Stations Pressure Air Temp Water Temp Dewpoint Dewpoint Depression Visibility Wind Speed Wind Dir Waves Ship Positions

Seafrance Rodin

Operator: SeaFrance

Last reported at 2017-Dec-11 17:00 UTC. Time now 2017-Dec-12 04:25 UTC.
Position N 50°58' E 001°40'.

Length 185 m; draft 6.4 m.

Type: Ship (hazmat cat A). MMSI: 227022800.

Date/timePositionNaut miles runAvg speedWind from/ knotsBaromVisibWave heightAir tempDewpointWater temp
2017-Dec-11 17:00N 50°58' E 001°40'0 0.7
2017-Dec-11 16:31N 50°58' E 001°40'5 9.1
2017-Dec-11 16:00N 51°00' E 001°34'612.1
2017-Dec-11 15:31N 51°04' E 001°26'510.1
2017-Dec-11 15:00N 51°07' E 001°20'0 0.0
2017-Dec-11 14:31N 51°07' E 001°20'0 0.1
2017-Dec-11 14:00N 51°07' E 001°20'3 5.7
2017-Dec-11 13:31N 51°07' E 001°25'1 2.5
2017-Dec-11 13:01N 51°08' E 001°27'1 2.6
2017-Dec-11 12:31N 51°07' E 001°29'0 0.6
2017-Dec-11 12:00N 51°07' E 001°28'2 3.6
2017-Dec-11 11:30N 51°06' E 001°29'815.5
2017-Dec-11 11:01N 51°01' E 001°39'815.7
2017-Dec-11 10:30N 50°58' E 001°51'0 0.5
2017-Dec-11 10:00N 50°58' E 001°51'0 0.4
2017-Dec-11 09:30N 50°58' E 001°51'511.0
2017-Dec-11 09:00N 50°58' E 001°42'816.9
2017-Dec-11 08:30N 51°03' E 001°31'816.5
2017-Dec-11 08:00N 51°07' E 001°20'0 0.0
2017-Dec-11 07:29N 51°07' E 001°20'0 0.2
2017-Dec-11 06:56N 51°07' E 001°20'1 3.3
2017-Dec-11 06:31N 51°07' E 001°22'714.3
2017-Dec-11 06:00N 51°04' E 001°32'918.0
2017-Dec-11 05:31N 50°58' E 001°44'5 9.0
2017-Dec-11 05:00N 50°58' E 001°51'0 0.0
2017-Dec-11 04:31N 50°58' E 001°51'1 1.0
2017-Dec-11 04:00N 50°58' E 001°51'816.0
2017-Dec-11 03:31N 50°59' E 001°38'816.1
2017-Dec-11 03:00N 51°04' E 001°28'611.9
2017-Dec-11 02:30N 51°07' E 001°20'0 0.0
2017-Dec-11 02:00N 51°07' E 001°20'3 7.0
2017-Dec-11 01:31N 51°06' E 001°25'1121.9
2017-Dec-11 01:01N 51°00' E 001°40'815.0
2017-Dec-11 00:30N 50°58' E 001°51'0 0.0
2017-Dec-11 00:01N 50°58' E 001°51'3 6.9
2017-Dec-10 23:31N 50°58' E 001°46'1019.2
2017-Dec-10 23:01N 51°01' E 001°31'1018.5
2017-Dec-10 22:29N 51°07' E 001°20'0 0.1
2017-Dec-10 22:00N 51°07' E 001°20'1 1.3
2017-Dec-10 21:30N 51°07' E 001°21'1020.0
2017-Dec-10 21:00N 51°02' E 001°34'1019.7
2017-Dec-10 20:31N 50°58' E 001°49'2 3.0
2017-Dec-10 20:01N 50°58' E 001°51'0 0.3
2017-Dec-10 19:31N 50°58' E 001°51'0 0.7
2017-Dec-10 19:00N 50°58' E 001°52'0 0.0
2017-Dec-10 18:30N 50°58' E 001°52'0 0.0
2017-Dec-10 17:57N 50°58' E 001°52'0 0.0
2017-Dec-10 17:30N 50°58' E 001°52'0 0.0
2017-Dec-10 16:51N 50°58' E 001°52'0 0.0
2017-Dec-10 16:30N 50°58' E 001°52'0 0.0
2017-Dec-10 15:57N 50°58' E 001°52'0 0.0
2017-Dec-10 15:30N 50°58' E 001°52'0 0.0
2017-Dec-10 15:00N 50°58' E 001°52'0 0.0
2017-Dec-10 14:29N 50°58' E 001°52'0 0.0
2017-Dec-10 13:59N 50°58' E 001°52'0 0.0
2017-Dec-10 13:29N 50°58' E 001°52'0 0.0
2017-Dec-10 12:59N 50°58' E 001°52'0 0.0
2017-Dec-10 12:29N 50°58' E 001°52'0 0.0
2017-Dec-10 11:59N 50°58' E 001°52'0 0.0
2017-Dec-10 11:29N 50°58' E 001°52'0 0.0
2017-Dec-10 10:59N 50°58' E 001°52'0 0.0
2017-Dec-10 10:29N 50°58' E 001°52'0 0.0
2017-Dec-10 09:59N 50°58' E 001°52'0 0.0
2017-Dec-10 09:29N 50°58' E 001°52'0 0.0
2017-Dec-10 08:59N 50°58' E 001°52'0 0.0
2017-Dec-10 08:26N 50°58' E 001°52'0 0.0
2017-Dec-10 07:59N 50°58' E 001°52'0 0.0
2017-Dec-10 07:29N 50°58' E 001°52'0 0.0
2017-Dec-10 06:59N 50°58' E 001°52'0 0.0
2017-Dec-10 06:29N 50°58' E 001°52'0 0.0
2017-Dec-10 05:59N 50°58' E 001°52'0 0.0
2017-Dec-10 05:30N 50°58' E 001°52'0 0.0
2017-Dec-10 05:01N 50°58' E 001°52'0 0.0
2017-Dec-10 04:30N 50°58' E 001°52'0 0.0
2017-Dec-10 04:00N 50°58' E 001°52'0 0.0
2017-Dec-10 03:31N 50°58' E 001°52'1 1.2
2017-Dec-10 03:00N 50°58' E 001°51'0 0.0
2017-Dec-10 02:31N 50°58' E 001°51'3 5.9
2017-Dec-10 02:00N 50°58' E 001°46'816.2
2017-Dec-10 01:30N 50°59' E 001°34'917.4
2017-Dec-10 01:00N 51°06' E 001°24'3 5.9
2017-Dec-10 00:30N 51°07' E 001°20'0 0.0
2017-Dec-10 00:00N 51°07' E 001°20'5 9.6
2017-Dec-09 23:30N 51°06' E 001°27'918.5
2017-Dec-09 23:00N 51°01' E 001°39'815.4
2017-Dec-09 22:30N 50°58' E 001°51'0 0.3
2017-Dec-09 22:00N 50°58' E 001°51'0 0.0
2017-Dec-09 21:30N 50°58' E 001°51'5 9.2
2017-Dec-09 21:01N 50°58' E 001°44'815.9
2017-Dec-09 20:31N 51°01' E 001°33'917.4
2017-Dec-09 20:00N 51°07' E 001°22'1 2.3
2017-Dec-09 19:30N 51°07' E 001°20'0 0.0
2017-Dec-09 19:00N 51°07' E 001°20'510.7
2017-Dec-09 18:31N 51°06' E 001°28'918.9
2017-Dec-09 18:00N 51°01' E 001°40'714.4
2017-Dec-09 17:30N 50°58' E 001°51'0 0.1
2017-Dec-09 17:00N 50°58' E 001°51'1 2.2
2017-Dec-09 16:30N 50°58' E 001°50'918.3
2017-Dec-09 16:00N 51°00' E 001°35'918.1
2017-Dec-09 15:30N 51°06' E 001°24'3 5.8
2017-Dec-09 15:00N 51°07' E 001°20'0 0.0
2017-Dec-09 14:27N 51°07' E 001°20'510.3
2017-Dec-09 14:01N 51°06' E 001°27'1020.6
2017-Dec-09 13:30N 50°60' E 001°40'714.2
2017-Dec-09 13:01N 50°58' E 001°51'0 0.0
2017-Dec-09 12:30N 50°58' E 001°51'2 3.7
2017-Dec-09 12:00N 50°58' E 001°48'816.4
2017-Dec-09 11:30N 50°60' E 001°35'918.9
2017-Dec-09 11:00N 51°06' E 001°24'3 5.9
2017-Dec-09 10:30N 51°07' E 001°20'0 0.0
2017-Dec-09 10:00N 51°07' E 001°20'5 9.3
2017-Dec-09 09:31N 51°06' E 001°27'918.4
2017-Dec-09 09:01N 51°01' E 001°39'815.6
2017-Dec-09 08:30N 50°58' E 001°51'0 0.6
2017-Dec-09 08:00N 50°58' E 001°51'0 0.0
2017-Dec-09 07:30N 50°58' E 001°51'4 7.3
2017-Dec-09 07:01N 50°58' E 001°45'917.1
2017-Dec-09 06:30N 51°01' E 001°33'918.4
2017-Dec-09 06:00N 51°06' E 001°21'1 2.7
2017-Dec-09 05:30N 51°07' E 001°20'0 0.1
2017-Dec-09 05:00N 51°07' E 001°20'612.1
2017-Dec-09 04:30N 51°06' E 001°29'816.6
2017-Dec-09 04:01N 51°01' E 001°40'713.8
2017-Dec-09 03:30N 50°58' E 001°50'1 1.4
2017-Dec-09 03:01N 50°58' E 001°51'0 0.0
2017-Dec-09 02:31N 50°58' E 001°51'2 4.2
2017-Dec-09 02:00N 50°58' E 001°48'816.7
2017-Dec-09 01:31N 50°59' E 001°35'816.4
2017-Dec-09 01:01N 51°05' E 001°26'4 8.1
2017-Dec-09 00:30N 51°07' E 001°20'0 0.0
2017-Dec-09 00:00N 51°07' E 001°20'1 2.7
2017-Dec-08 23:31N 51°07' E 001°22'918.4
2017-Dec-08 23:00N 51°02' E 001°35'918.7
2017-Dec-08 22:30N 50°58' E 001°48'2 4.1
2017-Dec-08 22:01N 50°58' E 001°51'0 0.0
2017-Dec-08 21:30N 50°58' E 001°51'510.5
2017-Dec-08 21:00N 50°58' E 001°43'816.5
2017-Dec-08 20:30N 51°02' E 001°32'917.5
2017-Dec-08 20:00N 51°07' E 001°20'0 0.5
2017-Dec-08 19:30N 51°07' E 001°20'0 0.0
2017-Dec-08 19:00N 51°07' E 001°20'611.3
2017-Dec-08 18:30N 51°06' E 001°29'1019.1
2017-Dec-08 18:00N 51°00' E 001°41'713.5
2017-Dec-08 17:31N 50°58' E 001°51'0 0.0
2017-Dec-08 17:01N 50°58' E 001°51'3 6.9
2017-Dec-08 16:30N 50°58' E 001°46'917.8
2017-Dec-08 16:00N 51°01' E 001°33'917.6
2017-Dec-08 15:30N 51°07' E 001°22'1 2.5
2017-Dec-08 15:00N 51°07' E 001°20'0 0.0
2017-Dec-08 14:31N 51°07' E 001°20'510.9
2017-Dec-08 14:01N 51°05' E 001°28'1019.7
2017-Dec-08 13:30N 50°60' E 001°41'713.1
2017-Dec-08 13:01N 50°58' E 001°51'0 0.0
2017-Dec-08 12:30N 50°58' E 001°51'0 0.9
2017-Dec-08 12:01N 50°58' E 001°51'713.6
2017-Dec-08 11:30N 50°59' E 001°40'1019.1
2017-Dec-08 11:00N 51°04' E 001°27'611.3
2017-Dec-08 10:31N 51°07' E 001°20'0 0.0
2017-Dec-08 09:59N 51°07' E 001°20'2 4.0
2017-Dec-08 09:31N 51°07' E 001°23'918.1
2017-Dec-08 09:00N 51°02' E 001°35'917.7
2017-Dec-08 08:31N 50°58' E 001°48'2 4.2
2017-Dec-08 08:00N 50°58' E 001°51'0 0.0
2017-Dec-08 07:30N 50°58' E 001°51'3 7.0
2017-Dec-08 07:00N 50°58' E 001°46'816.0
2017-Dec-08 06:30N 51°02' E 001°35'816.4
2017-Dec-08 06:00N 51°06' E 001°24'3 5.0
2017-Dec-08 05:30N 51°07' E 001°20'0 0.0
2017-Dec-08 05:00N 51°07' E 001°20'3 6.3
2017-Dec-08 04:30N 51°06' E 001°25'917.2
2017-Dec-08 04:01N 51°02' E 001°37'815.8
2017-Dec-08 03:30N 50°58' E 001°47'2 4.8
2017-Dec-08 03:00N 50°58' E 001°51'0 0.0
2017-Dec-08 02:30N 50°58' E 001°51'510.9
2017-Dec-08 02:00N 50°58' E 001°43'1021.0
2017-Dec-08 01:31N 51°02' E 001°28'713.3
2017-Dec-08 01:00N 51°07' E 001°20'0 0.1
2017-Dec-08 00:30N 51°07' E 001°20'714.7
2017-Dec-08 00:00N 51°05' E 001°31'1019.9
2017-Dec-07 23:30N 50°59' E 001°44'5 9.8
2017-Dec-07 23:00N 50°58' E 001°51'0 0.0
2017-Dec-07 22:31N 50°58' E 001°51'612.6
2017-Dec-07 22:00N 50°58' E 001°41'1019.2
2017-Dec-07 21:31N 51°03' E 001°28'713.7
2017-Dec-07 21:00N 51°07' E 001°20'0 0.0
2017-Dec-07 20:30N 51°07' E 001°20'1 1.8
2017-Dec-07 20:01N 51°07' E 001°22'919.0
2017-Dec-07 19:31N 51°03' E 001°35'919.0
2017-Dec-07 19:01N 50°58' E 001°48'2 4.0
2017-Dec-07 18:30N 50°58' E 001°51'0 0.0
2017-Dec-07 18:00N 50°58' E 001°51'510.7
2017-Dec-07 17:30N 50°58' E 001°43'1020.2
2017-Dec-07 17:01N 51°02' E 001°28'713.5
2017-Dec-07 16:29N 51°07' E 001°20'0 0.0
2017-Dec-07 16:00N 51°07' E 001°20'0 0.8
2017-Dec-07 15:30N 51°07' E 001°21'713.4
2017-Dec-07 15:00N 51°06' E 001°31'917.7
2017-Dec-07 14:31N 50°60' E 001°42'612.5
2017-Dec-07 14:01N 50°58' E 001°51'0 0.2
2017-Dec-07 13:31N 50°58' E 001°51'0 0.0
2017-Dec-07 13:01N 50°58' E 001°51'1 1.9
2017-Dec-07 12:31N 50°58' E 001°50'1020.0
2017-Dec-07 12:01N 51°01' E 001°34'917.5
2017-Dec-07 11:31N 51°07' E 001°24'3 5.5
2017-Dec-07 11:00N 51°07' E 001°20'0 0.0
2017-Dec-07 10:30N 51°07' E 001°20'1 2.4
2017-Dec-07 10:00N 51°07' E 001°22'3 5.3
2017-Dec-07 09:31N 51°06' E 001°26'918.0
2017-Dec-07 09:00N 51°01' E 001°38'917.5
2017-Dec-07 08:31N 50°58' E 001°51'0 0.6
2017-Dec-07 08:00N 50°58' E 001°51'0 0.0
2017-Dec-07 07:30N 50°58' E 001°51'4 8.7
2017-Dec-07 07:00N 50°58' E 001°44'817.0
2017-Dec-07 06:30N 51°02' E 001°33'917.5
2017-Dec-07 06:00N 51°07' E 001°21'1 1.4
2017-Dec-07 05:30N 51°07' E 001°20'0 0.2
2017-Dec-07 05:00N 51°07' E 001°20'3 6.6
2017-Dec-07 04:31N 51°07' E 001°25'816.6
2017-Dec-07 04:01N 51°03' E 001°37'816.8
2017-Dec-07 03:31N 50°58' E 001°48'2 4.1
2017-Dec-07 03:00N 50°58' E 001°51'0 0.0
2017-Dec-07 02:30N 50°58' E 001°51'1 2.8
2017-Dec-07 02:00N 50°58' E 001°49'918.3
2017-Dec-07 01:31N 51°01' E 001°35'917.4
2017-Dec-07 01:01N 51°06' E 001°24'3 5.6
2017-Dec-07 00:30N 51°07' E 001°20'0 0.0
2017-Dec-07 00:00N 51°07' E 001°20'2 3.2
2017-Dec-06 23:30N 51°07' E 001°23'816.9
2017-Dec-06 23:01N 51°02' E 001°34'918.0
2017-Dec-06 22:31N 50°58' E 001°46'3 6.1
2017-Dec-06 22:00N 50°58' E 001°51'0 0.0
2017-Dec-06 21:30N 50°58' E 001°51'510.8
2017-Dec-06 21:00N 50°58' E 001°43'  
2017-Dec-04 10:16N 51°07' E 001°20'0 0.0
2017-Dec-04 10:01N 51°07' E 001°20'4 8.1
2017-Dec-04 09:31N 51°07' E 001°27'917.1
2017-Dec-04 09:01N 51°02' E 001°38'816.2
2017-Dec-04 08:31N 50°58' E 001°49'1 2.5
2017-Dec-04 08:01N 50°58' E 001°51'0 0.0
2017-Dec-04 07:30N 50°58' E 001°51'3 6.9
2017-Dec-04 07:00N 50°58' E 001°46'815.3
2017-Dec-04 06:30N 50°60' E 001°34'817.1
2017-Dec-04 06:01N 51°05' E 001°24'3 6.2
2017-Dec-04 05:30N 51°07' E 001°20'0 0.0
2017-Dec-04 05:00N 51°07' E 001°20'510.6
2017-Dec-04 04:31N 51°05' E 001°28'816.1
2017-Dec-04 04:01N 51°00' E 001°38'815.9
2017-Dec-04 03:31N 50°58' E 001°50'1 1.6
2017-Dec-04 03:00N 50°58' E 001°51'0 0.0
2017-Dec-04 02:31N 50°58' E 001°51'3 6.4
2017-Dec-04 02:00N 50°58' E 001°46'714.7
2017-Dec-04 01:30N 51°01' E 001°35'714.2
2017-Dec-04 01:00N 51°05' E 001°26'5 9.3
2017-Dec-04 00:31N 51°07' E 001°20'0 0.0
2017-Dec-04 00:01N 51°07' E 001°20'1 2.2
2017-Dec-03 23:30N 51°07' E 001°22'917.9
2017-Dec-03 23:01N 51°04' E 001°35'917.6
2017-Dec-03 22:31N 50°58' E 001°46'4 7.0
2017-Dec-03 22:00N 50°58' E 001°51'0 0.0
2017-Dec-03 21:30N 50°58' E 001°51'5 9.3
2017-Dec-03 21:01N 50°58' E 001°44'916.9
2017-Dec-03 20:30N 51°02' E 001°32'816.7
2017-Dec-03 20:00N 51°07' E 001°21'1 1.6
2017-Dec-03 19:30N 51°07' E 001°20'0 0.0
2017-Dec-03 19:00N 51°07' E 001°20'612.3
2017-Dec-03 18:31N 51°05' E 001°29'1019.6
2017-Dec-03 18:01N 50°59' E 001°42'612.1
2017-Dec-03 17:30N 50°58' E 001°51'0 0.0
2017-Dec-03 17:00N 50°58' E 001°51'2 3.5
2017-Dec-03 16:31N 50°58' E 001°48'815.6
2017-Dec-03 16:00N 50°59' E 001°36'917.2
2017-Dec-03 15:30N 51°04' E 001°25'5 8.9
2017-Dec-03 15:00N 51°07' E 001°20'0 0.0
2017-Dec-03 14:30N 51°07' E 001°20'4 7.7
2017-Dec-03 14:00N 51°06' E 001°26'918.5
2017-Dec-03 13:30N 51°01' E 001°38'816.3
2017-Dec-03 13:00N 50°58' E 001°51'0 0.7
2017-Dec-03 12:30N 50°58' E 001°51'0 0.0
2017-Dec-03 12:00N 50°58' E 001°51'0 0.0
2017-Dec-03 11:30N 50°58' E 001°51'0 0.0
2017-Dec-03 11:00N 50°58' E 001°51'0 0.0
2017-Dec-03 10:30N 50°58' E 001°51'0 0.0
2017-Dec-03 10:00N 50°58' E 001°51'0 0.0
2017-Dec-03 09:30N 50°58' E 001°51'0 0.0
2017-Dec-03 09:00N 50°58' E 001°51'0 0.0
2017-Dec-03 08:30N 50°58' E 001°51'0 0.0
2017-Dec-03 08:00N 50°58' E 001°51'0 0.0
2017-Dec-03 07:30N 50°58' E 001°51'0 0.0
2017-Dec-03 06:57N 50°58' E 001°51'0 0.0
2017-Dec-03 06:30N 50°58' E 001°51'0 0.0
2017-Dec-03 06:00N 50°58' E 001°51'0 0.0
2017-Dec-03 05:30N 50°58' E 001°51'0 0.0
2017-Dec-03 05:00N 50°58' E 001°51'0 0.0
2017-Dec-03 04:30N 50°58' E 001°51'0 0.0
2017-Dec-03 04:00N 50°58' E 001°51'0 0.0
2017-Dec-03 03:31N 50°58' E 001°51'0 0.0
2017-Dec-03 03:01N 50°58' E 001°51'0 0.0
2017-Dec-03 02:30N 50°58' E 001°51'3 6.5
2017-Dec-03 02:00N 50°58' E 001°46'816.1
2017-Dec-03 01:31N 51°01' E 001°34'816.7
2017-Dec-03 01:00N 51°06' E 001°23'2 4.8
2017-Dec-03 00:30N 51°07' E 001°20'0 0.0
2017-Dec-03 00:00N 51°07' E 001°20'3 7.0
2017-Dec-02 23:30N 51°07' E 001°26'917.7
2017-Dec-02 23:00N 51°02' E 001°38'815.9
2017-Dec-02 22:30N 50°58' E 001°49'2 3.5
2017-Dec-02 22:00N 50°58' E 001°51'0 0.0
2017-Dec-02 21:30N 50°58' E 001°51'5 9.7
2017-Dec-02 21:01N 50°58' E 001°44'917.0
2017-Dec-02 20:30N 51°01' E 001°31'816.6
2017-Dec-02 20:00N 51°07' E 001°21'1 1.9
2017-Dec-02 19:30N 51°07' E 001°20'0 0.3
2017-Dec-02 18:58N 51°07' E 001°20'716.0
2017-Dec-02 18:30N 51°04' E 001°31'1019.5
2017-Dec-02 18:01N 50°59' E 001°44'5 9.7
2017-Dec-02 17:30N 50°58' E 001°51'0 0.0
2017-Dec-02 17:01N 50°58' E 001°51'5 9.1
2017-Dec-02 16:31N 50°58' E 001°44'1019.1
2017-Dec-02 16:00N 51°03' E 001°31'816.5
2017-Dec-02 15:31N 51°07' E 001°20'0 0.0
2017-Dec-02 15:00N 51°07' E 001°20'1 2.3
2017-Dec-02 14:31N 51°07' E 001°22'918.8
2017-Dec-02 14:01N 51°03' E 001°35'1019.0
2017-Dec-02 13:31N 50°58' E 001°48'2 3.8
2017-Dec-02 13:01N 50°58' E 001°51'0 0.0
2017-Dec-02 12:31N 50°58' E 001°51'510.7
2017-Dec-02 12:00N 50°58' E 001°43'1020.6
2017-Dec-02 11:31N 51°03' E 001°29'712.9
2017-Dec-02 10:58N 51°07' E 001°20'0 0.0
2017-Dec-02 10:30N 51°07' E 001°20'0 0.0
2017-Dec-02 10:00N 51°07' E 001°20'2 4.9
2017-Dec-02 09:30N 51°07' E 001°24'917.8
2017-Dec-02 09:00N 51°03' E 001°36'917.2
2017-Dec-02 08:30N 50°58' E 001°48'2 3.8
2017-Dec-02 08:00N 50°58' E 001°51'0 0.0
2017-Dec-02 07:30N 50°58' E 001°51'4 7.3
2017-Dec-02 07:00N 50°58' E 001°45'817.0
2017-Dec-02 06:30N 50°59' E 001°32'918.2
2017-Dec-02 06:00N 51°06' E 001°22'2 3.9
2017-Dec-02 05:30N 51°07' E 001°20'0 0.0
2017-Dec-02 05:00N 51°07' E 001°20'4 7.7
2017-Dec-02 04:31N 51°06' E 001°26'815.8
2017-Dec-02 04:00N 51°02' E 001°37'815.4
2017-Dec-02 03:31N 50°58' E 001°47'3 5.1
2017-Dec-02 03:00N 50°58' E 001°51'0 0.0
2017-Dec-02 02:31N 50°58' E 001°51'2 3.4
2017-Dec-02 02:00N 50°58' E 001°49'815.3
2017-Dec-02 01:31N 50°59' E 001°36'816.6
2017-Dec-02 01:00N 51°05' E 001°27'5 9.3
2017-Dec-02 00:29N 51°07' E 001°20'0 0.0
2017-Dec-02 00:00N 51°07' E 001°20'1 2.9
2017-Dec-01 23:30N 51°07' E 001°22'917.1
2017-Dec-01 23:01N 51°03' E 001°35'917.5
2017-Dec-01 22:31N 50°58' E 001°46'3 7.0
2017-Dec-01 22:00N 50°58' E 001°51'714.0
2017-Dec-01 21:30N 50°59' E 001°40'3 6.8
2017-Dec-01 21:01N 50°58' E 001°45'917.4
2017-Dec-01 20:31N 51°02' E 001°33'8 4.8
2017-Dec-01 18:46N 51°07' E 001°22'519.1
2017-Dec-01 18:30N 51°05' E 001°30'1019.1
2017-Dec-01 18:00N 50°59' E 001°42'611.9
2017-Dec-01 17:31N 50°58' E 001°51'  

Dump ship's entire track history